createdAt,value
2022-11-21T00:00:47.222Z,7.20
2022-11-21T00:03:14.374Z,7.20
2022-11-21T00:05:43.688Z,7.20
2022-11-21T00:08:11.792Z,7.30
2022-11-21T00:10:39.552Z,7.10
2022-11-21T00:13:07.601Z,7.20
2022-11-21T00:15:35.663Z,7.30
2022-11-21T00:18:03.396Z,7.30
2022-11-21T00:20:30.746Z,7.30
2022-11-21T00:22:57.387Z,7.20
2022-11-21T00:25:24.113Z,7.20
2022-11-21T00:27:52.219Z,7.30
2022-11-21T00:30:18.961Z,7.20
2022-11-21T00:32:45.842Z,7.20
2022-11-21T00:35:12.786Z,7.30
2022-11-21T00:37:39.419Z,7.30
2022-11-21T00:40:06.626Z,7.30
2022-11-21T00:42:33.276Z,7.30
2022-11-21T00:44:59.878Z,7.30
2022-11-21T00:47:26.477Z,7.30
2022-11-21T00:49:53.103Z,7.30
2022-11-21T00:52:19.749Z,7.30
2022-11-21T00:54:46.366Z,7.30
2022-11-21T00:57:12.960Z,7.20
2022-11-21T00:59:39.563Z,7.10
2022-11-21T01:02:06.155Z,7.00
2022-11-21T01:04:34.261Z,7.10
2022-11-21T01:07:01.297Z,7.10
2022-11-21T01:09:28.677Z,7.20
2022-11-21T01:11:56.217Z,7.10
2022-11-21T01:14:23.232Z,7.10
2022-11-21T01:16:49.876Z,7.10
2022-11-21T01:19:16.525Z,7.10
2022-11-21T01:21:43.161Z,7.20
2022-11-21T01:24:12.246Z,7.20
2022-11-21T01:26:39.286Z,7.10
2022-11-21T01:29:07.059Z,7.10
2022-11-21T01:31:33.692Z,7.10
2022-11-21T01:34:01.170Z,7.10
2022-11-21T01:36:33.457Z,7.10
2022-11-21T01:39:03.657Z,7.10
2022-11-21T01:41:36.292Z,7.10
2022-11-21T01:44:10.784Z,7.00
2022-11-21T01:46:37.376Z,7.00
2022-11-21T01:49:10.860Z,7.00
2022-11-21T01:52:07.335Z,7.10
2022-11-21T01:55:05.371Z,7.10
2022-11-21T01:57:38.384Z,7.10
2022-11-21T02:00:21.476Z,7.20
2022-11-21T02:02:51.732Z,7.20
2022-11-21T02:05:23.827Z,7.20
2022-11-21T02:07:54.591Z,7.20
2022-11-21T02:10:22.862Z,7.20
2022-11-21T02:12:51.934Z,7.10
2022-11-21T02:15:20.339Z,7.10
2022-11-21T02:17:46.944Z,7.10
2022-11-21T02:20:16.858Z,7.10
2022-11-21T02:23:11.312Z,7.00
2022-11-21T02:25:41.350Z,7.00
2022-11-21T02:28:21.441Z,7.00
2022-11-21T02:30:48.011Z,6.90
2022-11-21T02:33:15.372Z,6.90
2022-11-21T02:35:42.083Z,6.80
2022-11-21T02:38:24.183Z,6.80
2022-11-21T02:40:58.701Z,6.70
2022-11-21T02:43:30.777Z,6.80
2022-11-21T02:45:58.943Z,6.70
2022-11-21T02:48:25.580Z,6.70
2022-11-21T02:50:52.203Z,6.70
2022-11-21T02:53:19.765Z,6.70
2022-11-21T02:55:46.731Z,6.70
2022-11-21T02:58:13.443Z,6.60
2022-11-21T03:00:41.990Z,6.60
2022-11-21T03:03:08.857Z,6.60
2022-11-21T03:05:35.842Z,6.50
2022-11-21T03:08:03.066Z,6.50
2022-11-21T03:10:29.711Z,6.50
2022-11-21T03:13:00.737Z,6.60
2022-11-21T03:15:29.858Z,6.50
2022-11-21T03:17:57.059Z,6.60
2022-11-21T03:20:24.137Z,6.60
2022-11-21T03:22:50.815Z,6.70
2022-11-21T03:25:17.889Z,6.60
2022-11-21T03:27:44.509Z,6.50
2022-11-21T03:30:11.850Z,6.60
2022-11-21T03:32:38.445Z,6.60
2022-11-21T03:35:05.820Z,6.50
2022-11-21T03:37:32.421Z,6.50
2022-11-21T03:39:59.029Z,6.40
2022-11-21T03:42:25.644Z,6.40
2022-11-21T03:44:52.443Z,6.50
2022-11-21T03:47:19.018Z,6.30
2022-11-21T03:49:45.617Z,6.40
2022-11-21T03:52:12.208Z,6.30
2022-11-21T03:54:38.809Z,6.20
2022-11-21T03:57:05.383Z,6.20
2022-11-21T03:59:31.985Z,6.30
2022-11-21T04:01:58.883Z,6.40
2022-11-21T04:04:25.920Z,6.40
2022-11-21T04:06:52.831Z,6.50
2022-11-21T04:09:19.457Z,6.40
2022-11-21T04:11:46.052Z,6.30
2022-11-21T04:14:12.675Z,6.40
2022-11-21T04:16:39.262Z,6.40
2022-11-21T04:19:05.847Z,6.40
2022-11-21T04:21:32.457Z,6.20
2022-11-21T04:23:59.044Z,6.30
2022-11-21T04:26:25.662Z,6.40
2022-11-21T04:28:52.232Z,6.40
2022-11-21T04:31:18.888Z,6.40
2022-11-21T04:33:45.474Z,6.40
2022-11-21T04:36:12.074Z,6.20
2022-11-21T04:38:38.694Z,6.20
2022-11-21T04:41:05.319Z,6.20
2022-11-21T04:43:32.030Z,6.20
2022-11-21T04:45:58.623Z,6.10
2022-11-21T04:48:25.371Z,6.20
2022-11-21T04:50:51.992Z,6.20
2022-11-21T04:53:18.608Z,6.30
2022-11-21T04:55:45.218Z,6.30
2022-11-21T04:58:11.841Z,6.20
2022-11-21T05:00:38.431Z,6.20
2022-11-21T05:03:06.169Z,6.20
2022-11-21T05:05:33.168Z,6.20
2022-11-21T05:07:59.830Z,6.30
2022-11-21T05:10:26.790Z,6.30
2022-11-21T05:13:19.094Z,6.30
2022-11-21T05:15:46.231Z,6.30
2022-11-21T05:18:13.097Z,6.40
2022-11-21T05:20:39.743Z,6.40
2022-11-21T05:23:06.554Z,6.40
2022-11-21T05:25:33.330Z,6.40
2022-11-21T05:27:59.923Z,6.40
2022-11-21T05:30:26.581Z,6.40
2022-11-21T05:32:53.309Z,6.40
2022-11-21T05:35:19.982Z,6.40
2022-11-21T05:37:46.655Z,6.40
2022-11-21T05:40:13.562Z,6.50
2022-11-21T05:43:00.763Z,6.50
2022-11-21T05:45:27.512Z,6.40
2022-11-21T05:47:54.185Z,6.40
2022-11-21T05:50:20.789Z,6.40
2022-11-21T05:52:47.689Z,6.40
2022-11-21T05:55:14.321Z,6.40
2022-11-21T05:57:40.917Z,6.50
2022-11-21T06:00:08.601Z,6.50
2022-11-21T06:03:07.400Z,6.50
2022-11-21T06:05:34.024Z,6.50
2022-11-21T06:08:00.642Z,6.40
2022-11-21T06:10:27.249Z,6.40
2022-11-21T06:12:53.841Z,6.40
2022-11-21T06:15:20.697Z,6.30
2022-11-21T06:17:47.289Z,6.30
2022-11-21T06:20:14.175Z,6.40
2022-11-21T06:22:40.797Z,6.40
2022-11-21T06:25:07.716Z,6.30
2022-11-21T06:27:34.324Z,6.20
2022-11-21T06:30:01.101Z,6.30
2022-11-21T06:32:27.739Z,6.30
2022-11-21T06:34:54.404Z,6.20
2022-11-21T06:37:20.999Z,6.30
2022-11-21T06:39:48.686Z,6.30
2022-11-21T06:42:15.279Z,6.30
2022-11-21T06:44:41.873Z,6.40
2022-11-21T06:47:08.473Z,6.40
2022-11-21T06:49:35.076Z,6.40
2022-11-21T06:52:01.680Z,6.50
2022-11-21T06:54:28.281Z,6.50
2022-11-21T06:56:55.490Z,6.40
2022-11-21T06:59:22.117Z,6.50
2022-11-21T07:01:48.835Z,6.40
2022-11-21T07:04:15.481Z,6.30
2022-11-21T07:06:42.090Z,6.40
2022-11-21T07:09:32.270Z,6.40
2022-11-21T07:11:55.402Z,6.40
2022-11-21T07:14:21.998Z,6.50
2022-11-21T07:16:48.607Z,6.40
2022-11-21T07:19:15.211Z,6.40
2022-11-21T07:21:43.019Z,6.50
2022-11-21T07:24:09.642Z,6.50
2022-11-21T07:26:36.259Z,6.50
2022-11-21T07:29:02.903Z,6.60
2022-11-21T07:31:29.522Z,6.60
2022-11-21T07:33:56.186Z,6.60
2022-11-21T07:36:22.835Z,6.60
2022-11-21T07:38:49.587Z,6.60
2022-11-21T07:41:16.186Z,6.70
2022-11-21T07:43:42.825Z,6.70
2022-11-21T07:46:09.805Z,6.80
2022-11-21T07:48:36.477Z,6.80
2022-11-21T07:51:05.234Z,6.80
2022-11-21T07:53:31.891Z,6.80
2022-11-21T07:55:59.760Z,6.70
2022-11-21T07:58:26.800Z,6.70
2022-11-21T08:00:53.668Z,6.70
2022-11-21T08:03:20.385Z,6.70
2022-11-21T08:05:47.573Z,6.80
2022-11-21T08:08:14.400Z,6.80
2022-11-21T08:10:43.360Z,6.80
2022-11-21T08:13:10.251Z,6.70
2022-11-21T08:15:37.440Z,6.80
2022-11-21T08:18:22.009Z,6.80
2022-11-21T08:20:48.992Z,6.80
2022-11-21T08:23:16.197Z,6.80
2022-11-21T08:25:43.250Z,6.80
2022-11-21T08:28:11.605Z,6.80
2022-11-21T08:30:39.541Z,6.80
2022-11-21T08:33:07.079Z,6.90
2022-11-21T08:35:37.547Z,6.80
2022-11-21T08:38:04.544Z,7.10
2022-11-21T08:40:32.585Z,7.20
2022-11-21T08:43:04.909Z,7.10
2022-11-21T08:45:32.406Z,7.00
2022-11-21T08:47:59.301Z,6.90
2022-11-21T08:50:26.387Z,6.90
2022-11-21T08:52:53.115Z,7.00
2022-11-21T08:55:20.038Z,7.00
2022-11-21T08:57:46.688Z,7.00
2022-11-21T09:00:13.939Z,7.00
2022-11-21T09:02:40.610Z,6.80
2022-11-21T09:05:08.106Z,6.80
2022-11-21T09:07:35.346Z,6.70
2022-11-21T09:10:02.028Z,6.70
2022-11-21T09:12:28.657Z,6.80
2022-11-21T09:15:13.837Z,6.80
2022-11-21T09:17:59.200Z,6.80
2022-11-21T09:20:26.062Z,6.80
2022-11-21T09:22:53.046Z,6.90
2022-11-21T09:25:19.768Z,6.80
2022-11-21T09:27:47.007Z,6.90
2022-11-21T09:30:14.165Z,7.00
2022-11-21T09:32:41.314Z,6.90
2022-11-21T09:35:08.769Z,7.00
2022-11-21T09:37:38.476Z,7.10
2022-11-21T09:40:08.326Z,7.10
2022-11-21T09:43:02.808Z,7.20
2022-11-21T09:46:01.896Z,7.10
2022-11-21T09:48:51.879Z,7.20
2022-11-21T09:51:20.468Z,7.30
2022-11-21T09:54:27.196Z,7.30
2022-11-21T09:56:56.089Z,7.30
2022-11-21T09:59:39.885Z,7.40
2022-11-21T10:02:16.465Z,7.40
2022-11-21T10:04:43.548Z,7.50
2022-11-21T10:07:26.756Z,7.60
2022-11-21T10:10:23.538Z,7.60
2022-11-21T10:13:14.983Z,7.80
2022-11-21T10:16:12.874Z,7.70
2022-11-21T10:19:13.833Z,8.10
2022-11-21T10:22:21.678Z,8.10
2022-11-21T10:25:13.103Z,7.90
2022-11-21T10:27:57.450Z,7.90
2022-11-21T10:30:24.121Z,7.90
2022-11-21T10:32:58.673Z,8.00
2022-11-21T10:35:34.879Z,8.00
2022-11-21T10:38:03.254Z,8.00
2022-11-21T10:40:36.070Z,8.10
2022-11-21T10:43:41.457Z,8.10
2022-11-21T10:46:09.055Z,8.20
2022-11-21T10:48:35.877Z,8.20
2022-11-21T10:51:38.514Z,8.20
2022-11-21T10:54:31.693Z,8.20
2022-11-21T10:57:12.272Z,8.20
2022-11-21T10:59:39.341Z,8.30
2022-11-21T11:02:26.313Z,8.30
2022-11-21T11:05:25.477Z,8.30
2022-11-21T11:08:14.054Z,8.30
2022-11-21T11:10:43.283Z,8.30
2022-11-21T11:16:19.618Z,8.20
2022-11-21T11:18:59.320Z,8.20
2022-11-21T11:21:27.541Z,8.20
2022-11-21T11:24:06.156Z,8.30
2022-11-21T11:26:32.799Z,8.30
2022-11-21T11:29:23.900Z,8.30
2022-11-21T11:31:59.453Z,8.30
2022-11-21T11:34:51.071Z,8.60
2022-11-21T11:37:35.830Z,8.90
2022-11-21T11:40:21.398Z,9.10
2022-11-21T11:43:35.660Z,9.00
2022-11-21T11:46:42.238Z,8.80
2022-11-21T11:49:21.154Z,8.70
2022-11-21T11:51:54.527Z,8.60
2022-11-21T11:54:27.727Z,8.60
2022-11-21T11:56:55.473Z,8.70
2022-11-21T11:59:40.115Z,8.70
2022-11-21T12:02:16.581Z,8.80
2022-11-21T12:04:53.729Z,8.80
2022-11-21T12:10:24.223Z,8.90
2022-11-21T12:13:09.261Z,8.80
2022-11-21T12:15:49.855Z,8.80
2022-11-21T12:18:19.525Z,8.80
2022-11-21T12:20:49.213Z,8.80
2022-11-21T12:23:16.722Z,8.80
2022-11-21T12:26:35.412Z,10.20
2022-11-21T12:29:21.178Z,10.00
2022-11-21T12:31:51.057Z,9.70
2022-11-21T12:34:30.795Z,9.50
2022-11-21T12:37:08.361Z,9.40
2022-11-21T12:39:53.093Z,9.20
2022-11-21T12:42:49.068Z,9.10
2022-11-21T12:45:28.725Z,9.00
2022-11-21T12:48:31.754Z,9.00
2022-11-21T12:51:38.971Z,9.30
2022-11-21T12:54:30.065Z,9.40
2022-11-21T12:57:09.818Z,9.30
2022-11-21T12:59:54.667Z,9.20
2022-11-21T13:02:30.778Z,9.20
2022-11-21T13:04:59.434Z,9.10
2022-11-21T13:07:29.641Z,9.20
2022-11-21T13:09:59.036Z,9.20
2022-11-21T13:12:45.065Z,9.20
2022-11-21T13:15:56.270Z,9.30
2022-11-21T13:18:30.540Z,9.30
2022-11-21T13:20:57.225Z,9.40
2022-11-21T13:23:39.575Z,9.30
2022-11-21T13:26:24.575Z,9.20
2022-11-21T13:29:06.802Z,9.10
2022-11-21T13:31:34.156Z,9.10
2022-11-21T13:34:02.546Z,9.00
2022-11-21T13:36:29.133Z,9.00
2022-11-21T13:38:59.025Z,9.10
2022-11-21T13:41:53.130Z,9.00
2022-11-21T13:44:31.962Z,8.80
2022-11-21T13:47:09.603Z,8.80
2022-11-21T13:50:01.173Z,8.80
2022-11-21T13:52:54.992Z,8.70
2022-11-21T13:55:39.643Z,8.60
2022-11-21T13:58:18.685Z,8.60
2022-11-21T14:01:01.096Z,8.50
2022-11-21T14:03:33.719Z,8.40
2022-11-21T14:06:09.439Z,8.50
2022-11-21T14:08:36.303Z,8.50
2022-11-21T14:11:29.860Z,8.50
2022-11-21T14:13:56.509Z,8.40
2022-11-21T14:16:41.758Z,8.40
2022-11-21T14:19:17.517Z,8.50
2022-11-21T14:21:46.092Z,8.60
2022-11-21T14:24:17.254Z,8.70
2022-11-21T14:26:50.269Z,8.70
2022-11-21T14:29:26.715Z,8.70
2022-11-21T14:31:54.137Z,8.60
2022-11-21T14:34:29.718Z,8.60
2022-11-21T14:36:59.702Z,8.60
2022-11-21T14:39:38.126Z,8.50
2022-11-21T14:42:15.433Z,8.50
2022-11-21T14:44:42.862Z,8.50
2022-11-21T14:47:26.279Z,8.60
2022-11-21T14:49:55.577Z,8.60
2022-11-21T14:52:29.003Z,8.60
2022-11-21T14:57:52.977Z,8.40
2022-11-21T15:00:57.889Z,8.30
2022-11-21T15:03:22.185Z,8.20
2022-11-21T15:06:07.288Z,8.10
2022-11-21T15:09:46.049Z,8.00
2022-11-21T15:11:29.363Z,7.90
2022-11-21T15:14:17.442Z,7.80
2022-11-21T15:16:51.101Z,7.80
2022-11-21T15:19:27.334Z,7.80
2022-11-21T15:21:57.148Z,7.80
2022-11-21T15:24:42.618Z,7.70
2022-11-21T15:27:28.026Z,7.60
2022-11-21T15:30:21.996Z,7.60
2022-11-21T15:33:11.069Z,7.50
2022-11-21T15:35:40.678Z,7.40
2022-11-21T15:38:19.376Z,7.40
2022-11-21T15:41:15.187Z,7.30
2022-11-21T15:44:01.358Z,7.40
2022-11-21T15:46:37.794Z,7.40
2022-11-21T15:49:31.048Z,7.40
2022-11-21T15:54:38.761Z,7.30
2022-11-21T15:57:05.366Z,7.00
2022-11-21T15:57:11.102Z,7.30
2022-11-21T15:59:32.148Z,7.10
2022-11-21T16:01:59.056Z,7.10
2022-11-21T16:04:26.416Z,7.10
2022-11-21T16:06:56.011Z,7.10
2022-11-21T16:09:23.070Z,7.00
2022-11-21T16:11:49.715Z,6.90
2022-11-21T16:14:18.114Z,7.00
2022-11-21T16:16:45.511Z,7.00
2022-11-21T16:19:13.556Z,7.00
2022-11-21T16:21:40.484Z,6.90
2022-11-21T16:24:07.200Z,6.90
2022-11-21T16:26:33.899Z,6.90
2022-11-21T16:29:01.417Z,6.90
2022-11-21T16:31:30.666Z,6.90
2022-11-21T16:33:58.445Z,6.80
2022-11-21T16:36:27.287Z,6.90
2022-11-21T16:38:54.194Z,6.90
2022-11-21T16:41:22.771Z,6.90
2022-11-21T16:43:51.286Z,6.80
2022-11-21T16:46:19.686Z,6.90
2022-11-21T16:48:46.865Z,6.90
2022-11-21T16:51:18.197Z,6.90
2022-11-21T16:53:46.272Z,7.00
2022-11-21T16:56:13.279Z,6.90
2022-11-21T16:58:41.206Z,6.90
2022-11-21T17:01:13.510Z,6.80
2022-11-21T17:03:41.808Z,6.80
2022-11-21T17:06:10.799Z,6.70
2022-11-21T17:08:38.187Z,6.70
2022-11-21T17:11:31.799Z,6.70
2022-11-21T17:14:03.534Z,6.70
2022-11-21T17:16:30.559Z,6.60
2022-11-21T17:18:59.283Z,6.60
2022-11-21T17:21:26.972Z,6.60
2022-11-21T17:23:54.330Z,6.60
2022-11-21T17:26:23.699Z,6.60
2022-11-21T17:28:55.135Z,6.60
2022-11-21T17:31:21.767Z,6.60
2022-11-21T17:33:51.818Z,6.50
2022-11-21T17:36:21.478Z,6.50
2022-11-21T17:38:48.652Z,6.50
2022-11-21T17:41:18.027Z,6.50
2022-11-21T17:43:45.001Z,6.50
2022-11-21T17:46:17.427Z,6.50
2022-11-21T17:48:49.754Z,6.50
2022-11-21T17:51:22.296Z,6.40
2022-11-21T17:53:50.427Z,6.50
2022-11-21T17:56:22.327Z,6.60
2022-11-21T17:58:50.289Z,6.60
2022-11-21T18:01:20.685Z,6.60
2022-11-21T18:03:52.874Z,6.60
2022-11-21T18:06:19.739Z,6.70
2022-11-21T18:08:48.322Z,6.70
2022-11-21T18:11:21.321Z,6.80
2022-11-21T18:13:48.917Z,6.80
2022-11-21T18:16:19.139Z,6.80
2022-11-21T18:18:46.825Z,6.80
2022-11-21T18:21:15.960Z,6.80
2022-11-21T18:23:44.023Z,6.80
2022-11-21T18:26:22.645Z,6.70
2022-11-21T18:29:01.654Z,6.70
2022-11-21T18:31:37.570Z,6.70
2022-11-21T18:34:06.619Z,6.60
2022-11-21T18:36:33.704Z,6.60
2022-11-21T18:39:07.396Z,6.60
2022-11-21T18:41:38.857Z,6.60
2022-11-21T18:44:06.725Z,6.60
2022-11-21T18:46:35.945Z,6.50
2022-11-21T18:49:06.511Z,6.50
2022-11-21T18:51:35.589Z,6.60
2022-11-21T18:54:08.124Z,6.60
2022-11-21T18:56:36.612Z,6.50
2022-11-21T18:59:05.408Z,6.50
2022-11-21T19:01:32.745Z,6.50
2022-11-21T19:03:59.776Z,6.60
2022-11-21T19:06:27.652Z,6.60
2022-11-21T19:08:55.941Z,6.60
2022-11-21T19:11:24.805Z,6.60
2022-11-21T19:13:53.167Z,6.70
2022-11-21T19:16:24.227Z,6.70
2022-11-21T19:19:12.063Z,6.70
2022-11-21T19:21:39.553Z,6.70
2022-11-21T19:24:07.218Z,6.70
2022-11-21T19:26:33.959Z,6.60
2022-11-21T19:29:00.954Z,6.60
2022-11-21T19:31:27.749Z,6.60
2022-11-21T19:33:54.405Z,6.70
2022-11-21T19:36:23.406Z,6.70
2022-11-21T19:38:51.575Z,6.60
2022-11-21T19:41:26.567Z,6.70
2022-11-21T19:43:57.368Z,6.70
2022-11-21T19:46:26.663Z,6.80
2022-11-21T19:48:55.608Z,6.80
2022-11-21T19:51:27.486Z,6.80
2022-11-21T19:53:54.244Z,6.70
2022-11-21T19:56:23.711Z,6.70
2022-11-21T19:58:51.485Z,6.70
2022-11-21T20:01:20.287Z,6.80
2022-11-21T20:03:48.859Z,6.80
2022-11-21T20:06:17.944Z,6.80
2022-11-21T20:08:48.988Z,6.80
2022-11-21T20:11:16.677Z,6.80
2022-11-21T20:13:45.204Z,6.80
2022-11-21T20:16:21.097Z,6.80
2022-11-21T20:18:48.141Z,6.90
2022-11-21T20:21:15.547Z,6.90
2022-11-21T20:23:42.528Z,6.90
2022-11-21T20:26:09.657Z,6.90
2022-11-21T20:28:37.110Z,7.00
2022-11-21T20:31:09.203Z,7.00
2022-11-21T20:33:37.473Z,7.00
2022-11-21T20:36:05.993Z,7.00
2022-11-21T20:38:32.740Z,7.00
2022-11-21T20:41:00.236Z,7.00
2022-11-21T20:43:52.593Z,6.90
2022-11-21T20:46:19.925Z,7.00
2022-11-21T20:48:47.266Z,7.00
2022-11-21T20:52:43.323Z,7.00
2022-11-21T20:54:03.767Z,7.00
2022-11-21T20:56:35.470Z,7.00
2022-11-21T20:59:03.636Z,6.90
2022-11-21T21:01:30.976Z,7.00
2022-11-21T21:03:57.799Z,6.90
2022-11-21T21:06:24.426Z,6.90
2022-11-21T21:08:52.007Z,6.90
2022-11-21T21:11:50.491Z,6.90
2022-11-21T21:14:11.882Z,7.00
2022-11-21T21:16:38.492Z,6.90
2022-11-21T21:19:05.119Z,7.00
2022-11-21T21:21:31.744Z,6.90
2022-11-21T21:24:04.213Z,6.90
2022-11-21T21:26:41.789Z,7.00
2022-11-21T21:29:11.691Z,7.00
2022-11-21T21:31:38.320Z,7.00
2022-11-21T21:34:05.001Z,7.10
2022-11-21T21:36:32.357Z,7.00
2022-11-21T21:39:00.451Z,7.10
2022-11-21T21:41:29.592Z,7.10
2022-11-21T21:43:57.410Z,7.10
2022-11-21T21:46:26.476Z,7.00
2022-11-21T21:48:56.112Z,7.00
2022-11-21T21:51:28.303Z,6.90
2022-11-21T21:53:56.849Z,6.90
2022-11-21T21:56:25.745Z,6.90
2022-11-21T21:58:52.620Z,7.00
2022-11-21T22:01:28.058Z,7.00
2022-11-21T22:04:00.303Z,7.00
2022-11-21T22:06:27.679Z,7.00
2022-11-21T22:08:54.953Z,7.00
2022-11-21T22:11:32.740Z,7.00
2022-11-21T22:14:05.757Z,7.00
2022-11-21T22:16:32.617Z,6.90
2022-11-21T22:18:59.262Z,7.00
2022-11-21T22:21:28.389Z,7.00
2022-11-21T22:26:46.702Z,7.00
2022-11-21T22:29:13.499Z,7.00
2022-11-21T22:31:40.176Z,7.10
2022-11-21T22:34:06.822Z,7.00
2022-11-21T22:36:33.456Z,7.00
2022-11-21T22:39:00.052Z,7.00
2022-11-21T22:41:27.440Z,7.00
2022-11-21T22:43:56.533Z,7.00
2022-11-21T22:46:25.073Z,7.00
2022-11-21T22:48:51.703Z,6.90
2022-11-21T22:51:23.868Z,6.90
2022-11-21T22:53:51.347Z,6.80
2022-11-21T22:56:19.972Z,6.80
2022-11-21T22:58:47.425Z,6.80
2022-11-21T23:01:17.608Z,6.80
2022-11-21T23:03:44.485Z,6.80
2022-11-21T23:06:30.412Z,6.80
2022-11-21T23:08:57.535Z,6.70
2022-11-21T23:11:27.457Z,6.70
2022-11-21T23:13:55.611Z,6.70
2022-11-21T23:16:22.377Z,6.70
2022-11-21T23:18:52.514Z,6.70
2022-11-21T23:21:19.178Z,6.60
2022-11-21T23:23:45.783Z,6.60
2022-11-21T23:26:12.479Z,6.70
2022-11-21T23:28:39.257Z,6.60
2022-11-21T23:31:05.886Z,6.60
2022-11-21T23:33:32.553Z,6.60
2022-11-21T23:35:59.155Z,6.60
2022-11-21T23:38:25.821Z,6.60
2022-11-21T23:40:52.535Z,6.60
2022-11-21T23:43:19.185Z,6.60
2022-11-21T23:45:53.824Z,6.50
2022-11-21T23:48:21.319Z,6.50
2022-11-21T23:50:50.235Z,6.50
2022-11-21T23:53:17.288Z,6.60
2022-11-21T23:55:44.267Z,6.60
2022-11-21T23:58:11.529Z,6.50
